createdAt,value
2023-02-25T00:00:35.353Z,12.35
2023-02-25T00:03:02.523Z,12.34
2023-02-25T00:05:31.987Z,12.29
2023-02-25T00:07:59.708Z,12.26
2023-02-25T00:10:26.789Z,12.26
2023-02-25T00:12:53.646Z,12.23
2023-02-25T00:15:20.593Z,12.20
2023-02-25T00:17:49.900Z,12.16
2023-02-25T00:20:22.562Z,12.16
2023-02-25T00:22:50.025Z,12.18
2023-02-25T00:25:17.001Z,12.14
2023-02-25T00:27:44.530Z,12.15
2023-02-25T00:30:12.475Z,12.13
2023-02-25T00:32:39.813Z,12.13
2023-02-25T00:35:07.334Z,12.13
2023-02-25T00:37:34.320Z,12.12
2023-02-25T00:40:01.147Z,12.10
2023-02-25T00:42:28.441Z,12.07
2023-02-25T00:44:55.304Z,12.06
2023-02-25T00:47:22.949Z,12.06
2023-02-25T00:49:50.353Z,12.05
2023-02-25T00:52:17.264Z,12.02
2023-02-25T00:54:44.249Z,12.00
2023-02-25T00:57:11.098Z,11.98
2023-02-25T00:59:37.974Z,11.94
2023-02-25T01:02:05.284Z,11.92
2023-02-25T01:04:32.460Z,11.92
2023-02-25T01:06:59.675Z,11.93
2023-02-25T01:09:26.838Z,11.90
2023-02-25T01:11:53.692Z,11.90
2023-02-25T01:14:24.145Z,11.90
2023-02-25T01:16:53.263Z,11.90
2023-02-25T01:19:25.963Z,11.85
2023-02-25T01:21:56.620Z,11.84
2023-02-25T01:24:30.029Z,11.87
2023-02-25T01:27:00.109Z,11.83
2023-02-25T01:29:34.010Z,11.78
2023-02-25T01:32:03.433Z,11.79
2023-02-25T01:34:30.729Z,11.77
2023-02-25T01:36:58.623Z,11.73
2023-02-25T01:39:27.260Z,11.72
2023-02-25T01:41:56.898Z,11.70
2023-02-25T01:44:32.532Z,11.64
2023-02-25T01:47:01.474Z,11.64
2023-02-25T01:49:45.822Z,11.62
2023-02-25T01:52:21.128Z,11.63
2023-02-25T01:54:53.501Z,11.63
2023-02-25T01:57:21.309Z,11.63
2023-02-25T01:59:50.581Z,11.62
2023-02-25T02:02:21.558Z,11.61
2023-02-25T02:04:52.283Z,11.60
2023-02-25T02:07:21.920Z,11.58
2023-02-25T02:09:58.743Z,11.57
2023-02-25T02:12:29.456Z,11.56
2023-02-25T02:14:59.377Z,11.56
2023-02-25T02:17:59.784Z,11.54
2023-02-25T02:20:59.426Z,11.49
2023-02-25T02:23:57.610Z,11.45
2023-02-25T02:26:27.346Z,11.45
2023-02-25T02:29:00.326Z,11.45
2023-02-25T02:31:45.649Z,11.47
2023-02-25T02:34:48.934Z,11.48
2023-02-25T02:37:36.358Z,11.43
2023-02-25T02:40:35.018Z,11.40
2023-02-25T02:43:07.522Z,11.41
2023-02-25T02:45:40.731Z,11.41
2023-02-25T02:48:25.387Z,11.37
2023-02-25T02:51:00.333Z,11.36
2023-02-25T02:53:52.095Z,11.38
2023-02-25T02:56:22.030Z,11.39
2023-02-25T02:58:56.565Z,11.38
2023-02-25T03:01:28.620Z,11.39
2023-02-25T03:04:02.002Z,11.37
2023-02-25T03:06:43.136Z,11.39
2023-02-25T03:09:23.759Z,11.37
2023-02-25T03:11:51.599Z,11.40
2023-02-25T03:14:19.386Z,11.40
2023-02-25T03:16:57.350Z,11.42
2023-02-25T03:19:35.246Z,11.43
2023-02-25T03:22:13.286Z,11.41
2023-02-25T03:24:50.778Z,11.42
2023-02-25T03:27:34.497Z,11.41
2023-02-25T03:30:12.713Z,11.34
2023-02-25T03:32:47.504Z,11.32
2023-02-25T03:35:16.229Z,11.28
2023-02-25T03:37:49.161Z,11.29
2023-02-25T03:40:18.034Z,11.32
2023-02-25T03:42:58.066Z,11.34
2023-02-25T03:45:25.752Z,11.33
2023-02-25T03:47:54.042Z,11.33
2023-02-25T03:50:26.223Z,11.33
2023-02-25T03:52:58.230Z,11.30
2023-02-25T03:55:49.122Z,11.30
2023-02-25T03:58:16.076Z,11.30
2023-02-25T04:00:46.917Z,11.34
2023-02-25T04:03:14.156Z,11.34
2023-02-25T04:05:41.229Z,11.33
2023-02-25T04:08:15.441Z,11.29
2023-02-25T04:10:44.102Z,11.33
2023-02-25T04:13:13.798Z,11.30
2023-02-25T04:15:41.819Z,11.30
2023-02-25T04:18:09.578Z,11.28
2023-02-25T04:20:36.576Z,11.29
2023-02-25T04:23:03.525Z,11.29
2023-02-25T04:25:31.042Z,11.27
2023-02-25T04:27:57.992Z,11.27
2023-02-25T04:30:25.045Z,11.26
2023-02-25T04:32:52.055Z,11.26
2023-02-25T04:35:18.968Z,11.25
2023-02-25T04:37:45.851Z,11.27
2023-02-25T04:40:16.808Z,11.24
2023-02-25T04:42:44.065Z,11.23
2023-02-25T04:45:12.536Z,11.23
2023-02-25T04:47:39.570Z,11.21
2023-02-25T04:50:08.334Z,11.13
2023-02-25T04:52:36.181Z,11.14
2023-02-25T04:55:03.336Z,11.11
2023-02-25T04:57:30.232Z,11.08
2023-02-25T04:59:57.545Z,11.09
2023-02-25T05:02:24.600Z,11.07
2023-02-25T05:04:51.472Z,11.06
2023-02-25T05:07:18.474Z,11.06
2023-02-25T05:09:45.395Z,11.04
2023-02-25T05:12:13.151Z,11.02
2023-02-25T05:14:40.259Z,10.98
2023-02-25T05:17:07.160Z,10.98
2023-02-25T05:19:34.464Z,10.96
2023-02-25T05:22:01.444Z,10.95
2023-02-25T05:24:28.492Z,10.93
2023-02-25T05:26:55.374Z,10.90
2023-02-25T05:29:22.270Z,10.90
2023-02-25T05:31:51.981Z,10.93
2023-02-25T05:34:19.096Z,10.88
2023-02-25T05:36:46.976Z,10.92
2023-02-25T05:39:14.684Z,10.92
2023-02-25T05:41:41.667Z,10.91
2023-02-25T05:44:10.865Z,10.87
2023-02-25T05:46:37.781Z,10.86
2023-02-25T05:49:04.842Z,10.84
2023-02-25T05:51:31.916Z,10.83
2023-02-25T05:53:58.845Z,10.82
2023-02-25T05:56:30.240Z,10.80
2023-02-25T05:58:58.648Z,10.78
2023-02-25T06:01:29.366Z,10.76
2023-02-25T06:03:58.701Z,10.71
2023-02-25T06:06:28.332Z,10.67
2023-02-25T06:08:58.443Z,10.67
2023-02-25T06:11:28.134Z,10.62
2023-02-25T06:13:56.900Z,10.61
2023-02-25T06:16:26.054Z,10.64
2023-02-25T06:18:53.524Z,10.63
2023-02-25T06:21:20.632Z,10.65
2023-02-25T06:23:50.510Z,10.64
2023-02-25T06:26:18.284Z,10.63
2023-02-25T06:28:45.191Z,10.62
2023-02-25T06:31:15.188Z,10.66
2023-02-25T06:33:42.357Z,10.66
2023-02-25T06:36:10.611Z,10.66
2023-02-25T06:38:37.669Z,10.65
2023-02-25T06:41:10.958Z,10.67
2023-02-25T06:43:38.296Z,10.65
2023-02-25T06:46:10.101Z,10.61
2023-02-25T06:48:37.078Z,10.62
2023-02-25T06:51:09.339Z,10.64
2023-02-25T06:53:41.151Z,10.65
2023-02-25T06:56:09.082Z,10.67
2023-02-25T06:58:37.458Z,10.69
2023-02-25T07:01:13.987Z,10.73
2023-02-25T07:03:43.632Z,10.69
2023-02-25T07:06:11.537Z,10.71
2023-02-25T07:08:38.812Z,10.74
2023-02-25T07:11:15.252Z,10.78
2023-02-25T07:13:43.537Z,10.80
2023-02-25T07:16:11.920Z,10.86
2023-02-25T07:18:39.482Z,10.90
2023-02-25T07:21:06.640Z,10.96
2023-02-25T07:23:33.750Z,11.01
2023-02-25T07:26:05.116Z,11.08
2023-02-25T07:28:32.511Z,11.11
2023-02-25T07:31:04.230Z,11.12
2023-02-25T07:33:31.426Z,11.18
2023-02-25T07:35:58.842Z,11.22
2023-02-25T07:38:25.779Z,11.27
2023-02-25T07:40:53.166Z,11.32
2023-02-25T07:43:20.261Z,11.37
2023-02-25T07:45:50.004Z,11.40
2023-02-25T07:48:16.997Z,11.42
2023-02-25T07:50:44.847Z,11.47
2023-02-25T07:53:11.700Z,11.46
2023-02-25T07:55:38.645Z,11.48
2023-02-25T07:58:07.359Z,11.49
2023-02-25T08:00:35.621Z,11.48
2023-02-25T08:03:02.561Z,11.52
2023-02-25T08:05:29.629Z,11.47
2023-02-25T08:07:56.479Z,11.52
2023-02-25T08:10:23.441Z,11.52
2023-02-25T08:12:50.326Z,11.57
2023-02-25T08:15:17.348Z,11.63
2023-02-25T08:17:44.442Z,11.64
2023-02-25T08:20:12.582Z,11.69
2023-02-25T08:22:39.464Z,11.71
2023-02-25T08:25:06.539Z,11.73
2023-02-25T08:27:35.430Z,11.76
2023-02-25T08:30:03.259Z,11.79
2023-02-25T08:32:31.405Z,11.83
2023-02-25T08:34:58.388Z,11.86
2023-02-25T08:37:25.795Z,11.86
2023-02-25T08:39:56.275Z,11.91
2023-02-25T08:42:24.326Z,11.95
2023-02-25T08:44:51.235Z,12.01
2023-02-25T08:47:18.452Z,12.02
2023-02-25T08:49:46.633Z,12.07
2023-02-25T08:52:14.125Z,12.07
2023-02-25T08:54:41.577Z,12.06
2023-02-25T08:57:08.636Z,12.04
2023-02-25T08:59:38.531Z,12.00
2023-02-25T09:02:07.674Z,12.02
2023-02-25T09:04:35.096Z,12.06
2023-02-25T09:07:02.635Z,12.09
2023-02-25T09:09:29.785Z,12.05
2023-02-25T09:11:57.084Z,11.98
2023-02-25T09:14:24.613Z,12.06
2023-02-25T09:16:52.171Z,12.10
2023-02-25T09:19:19.572Z,12.15
2023-02-25T09:21:50.691Z,12.15
2023-02-25T09:24:18.120Z,12.20
2023-02-25T09:26:45.504Z,12.20
2023-02-25T09:29:12.479Z,12.26
2023-02-25T09:31:39.960Z,12.33
2023-02-25T09:34:10.126Z,12.38
2023-02-25T09:36:37.432Z,12.40
2023-02-25T09:39:10.517Z,12.40
2023-02-25T09:41:43.375Z,12.42
2023-02-25T09:44:27.027Z,12.48
2023-02-25T09:47:02.320Z,12.46
2023-02-25T09:49:46.757Z,12.46
2023-02-25T09:52:19.420Z,12.40
2023-02-25T09:54:49.099Z,12.40
2023-02-25T09:57:22.698Z,12.43
2023-02-25T09:59:53.713Z,12.42
2023-02-25T10:02:44.544Z,12.43
2023-02-25T10:05:44.200Z,12.36
2023-02-25T10:08:30.160Z,12.41
2023-02-25T10:11:10.334Z,12.44
2023-02-25T10:14:09.814Z,12.48
2023-02-25T10:17:14.439Z,12.45
2023-02-25T10:19:49.569Z,12.38
2023-02-25T10:22:29.224Z,12.43
2023-02-25T10:25:15.534Z,12.40
2023-02-25T10:28:07.727Z,12.30
2023-02-25T10:30:53.029Z,12.29
2023-02-25T10:33:24.654Z,12.35
2023-02-25T10:36:02.981Z,12.37
2023-02-25T10:38:30.004Z,12.38
2023-02-25T10:40:59.122Z,12.41
2023-02-25T10:43:27.534Z,12.40
2023-02-25T10:46:28.686Z,12.43
2023-02-25T10:49:16.411Z,12.46
2023-02-25T10:52:10.487Z,12.50
2023-02-25T10:54:50.974Z,12.58
2023-02-25T10:57:33.817Z,12.57
2023-02-25T11:00:29.258Z,12.63
2023-02-25T11:02:58.502Z,12.59
2023-02-25T11:05:36.960Z,12.68
2023-02-25T11:08:08.026Z,12.79
2023-02-25T11:10:35.329Z,12.83
2023-02-25T11:13:03.648Z,12.91
2023-02-25T11:15:45.133Z,13.04
2023-02-25T11:18:36.185Z,13.12
2023-02-25T11:21:09.682Z,13.19
2023-02-25T11:23:42.782Z,13.32
2023-02-25T11:26:16.212Z,13.45
2023-02-25T11:28:53.252Z,13.56
2023-02-25T11:31:24.869Z,13.66
2023-02-25T11:34:01.360Z,13.77
2023-02-25T11:36:39.109Z,13.85
2023-02-25T11:39:27.613Z,14.01
2023-02-25T11:42:02.637Z,14.09
2023-02-25T11:44:45.016Z,14.22
2023-02-25T11:47:34.991Z,14.36
2023-02-25T11:50:19.876Z,14.47
2023-02-25T11:53:10.223Z,14.65
2023-02-25T11:55:59.143Z,14.73
2023-02-25T11:58:53.791Z,14.70
2023-02-25T12:01:57.988Z,14.63
2023-02-25T12:04:39.807Z,14.72
2023-02-25T12:07:37.421Z,14.74
2023-02-25T12:10:22.844Z,14.86
2023-02-25T12:13:03.127Z,14.92
2023-02-25T12:16:08.237Z,15.01
2023-02-25T12:18:57.019Z,15.13
2023-02-25T12:21:43.398Z,15.23
2023-02-25T12:24:34.563Z,15.31
2023-02-25T12:27:13.368Z,15.27
2023-02-25T12:30:04.705Z,15.33
2023-02-25T12:33:06.859Z,15.39
2023-02-25T12:36:04.709Z,15.41
2023-02-25T12:39:03.183Z,15.47
2023-02-25T12:41:39.966Z,15.47
2023-02-25T12:44:33.633Z,15.59
2023-02-25T12:47:28.103Z,15.67
2023-02-25T12:50:22.794Z,15.70
2023-02-25T12:53:37.513Z,15.68
2023-02-25T12:56:44.031Z,15.73
2023-02-25T12:59:26.520Z,15.77
2023-02-25T13:01:56.314Z,15.83
2023-02-25T13:04:32.363Z,15.92
2023-02-25T13:07:19.296Z,16.01
2023-02-25T13:10:19.520Z,16.06
2023-02-25T13:12:53.998Z,16.03
2023-02-25T13:15:41.149Z,15.96
2023-02-25T13:18:40.255Z,15.90
2023-02-25T13:21:16.388Z,15.87
2023-02-25T13:23:57.253Z,15.88
2023-02-25T13:26:45.627Z,15.81
2023-02-25T13:29:49.803Z,15.55
2023-02-25T13:33:03.137Z,15.57
2023-02-25T13:35:48.928Z,15.53
2023-02-25T13:38:40.692Z,15.57
2023-02-25T13:41:42.177Z,15.56
2023-02-25T13:44:27.579Z,15.61
2023-02-25T13:47:03.052Z,15.65
2023-02-25T13:49:49.777Z,15.73
2023-02-25T13:53:02.012Z,15.78
2023-02-25T13:55:50.523Z,15.79
2023-02-25T13:58:24.193Z,15.77
2023-02-25T14:01:25.057Z,15.87
2023-02-25T14:04:22.752Z,16.00
2023-02-25T14:07:22.466Z,16.03
2023-02-25T14:10:27.157Z,16.07
2023-02-25T14:13:26.076Z,16.17
2023-02-25T14:16:07.744Z,16.21
2023-02-25T14:18:58.533Z,16.31
2023-02-25T14:21:57.878Z,16.14
2023-02-25T14:24:43.032Z,16.16
2023-02-25T14:27:43.121Z,16.18
2023-02-25T14:30:25.233Z,16.21
2023-02-25T14:33:05.442Z,16.22
2023-02-25T14:36:04.876Z,16.32
2023-02-25T14:38:53.051Z,16.37
2023-02-25T14:42:02.277Z,16.36
2023-02-25T14:44:37.340Z,16.34
2023-02-25T14:47:32.412Z,16.40
2023-02-25T14:50:09.515Z,16.43
2023-02-25T14:53:18.043Z,16.47
2023-02-25T14:55:59.909Z,16.48
2023-02-25T14:58:41.630Z,16.50
2023-02-25T15:01:45.993Z,16.52
2023-02-25T15:04:12.958Z,16.52
2023-02-25T15:06:57.875Z,16.64
2023-02-25T15:09:43.543Z,16.49
2023-02-25T15:12:24.194Z,16.45
2023-02-25T15:15:27.969Z,16.48
2023-02-25T15:18:17.541Z,16.45
2023-02-25T15:20:44.804Z,16.42
2023-02-25T15:23:24.093Z,16.26
2023-02-25T15:26:12.041Z,16.11
2023-02-25T15:28:41.347Z,15.86
2023-02-25T15:31:28.941Z,15.91
2023-02-25T15:34:22.008Z,15.90
2023-02-25T15:36:51.948Z,15.95
2023-02-25T15:39:40.471Z,16.04
2023-02-25T15:42:12.058Z,15.92
2023-02-25T15:44:41.273Z,15.97
2023-02-25T15:47:11.251Z,15.98
2023-02-25T15:49:44.422Z,15.89
2023-02-25T15:52:11.927Z,15.87
2023-02-25T15:54:38.827Z,15.92
2023-02-25T15:57:08.743Z,15.92
2023-02-25T15:59:50.533Z,15.97
2023-02-25T16:02:35.810Z,16.04
2023-02-25T16:05:17.074Z,15.97
2023-02-25T16:07:47.034Z,16.02
2023-02-25T16:10:32.092Z,16.05
2023-02-25T16:13:01.127Z,16.00
2023-02-25T16:15:35.150Z,16.01
2023-02-25T16:18:21.512Z,15.98
2023-02-25T16:20:51.560Z,15.96
2023-02-25T16:23:19.622Z,16.01
2023-02-25T16:26:14.268Z,16.01
2023-02-25T16:29:08.515Z,15.93
2023-02-25T16:31:52.221Z,15.85
2023-02-25T16:34:46.723Z,15.82
2023-02-25T16:37:22.575Z,15.75
2023-02-25T16:39:49.696Z,15.64
2023-02-25T16:42:18.583Z,15.63
2023-02-25T16:44:55.355Z,15.49
2023-02-25T16:47:29.606Z,15.46
2023-02-25T16:49:59.990Z,15.44
2023-02-25T16:52:31.869Z,15.44
2023-02-25T16:55:05.464Z,15.42
2023-02-25T16:57:38.851Z,15.44
2023-02-25T17:00:21.797Z,15.35
2023-02-25T17:02:55.347Z,15.28
2023-02-25T17:05:25.650Z,15.25
2023-02-25T17:08:02.084Z,15.21
2023-02-25T17:10:46.572Z,15.20
2023-02-25T17:13:27.239Z,15.13
2023-02-25T17:15:54.605Z,15.12
2023-02-25T17:18:32.257Z,15.14
2023-02-25T17:21:04.428Z,15.10
2023-02-25T17:23:37.251Z,15.06
2023-02-25T17:26:04.991Z,15.05
2023-02-25T17:28:34.012Z,14.99
2023-02-25T17:31:19.426Z,14.96
2023-02-25T17:33:49.474Z,14.88
2023-02-25T17:36:20.684Z,14.73
2023-02-25T17:38:54.088Z,14.67
2023-02-25T17:41:25.318Z,14.66
2023-02-25T17:43:52.826Z,14.52
2023-02-25T17:46:26.179Z,14.50
2023-02-25T17:48:56.974Z,14.48
2023-02-25T17:51:38.019Z,14.49
2023-02-25T17:54:07.626Z,14.42
2023-02-25T17:56:36.217Z,14.41
2023-02-25T17:59:15.003Z,14.33
2023-02-25T18:01:46.888Z,14.29
2023-02-25T18:04:42.740Z,14.20
2023-02-25T18:07:30.838Z,14.16
2023-02-25T18:09:58.204Z,14.07
2023-02-25T18:12:35.606Z,14.10
2023-02-25T18:15:16.073Z,14.09
2023-02-25T18:17:49.086Z,14.04
2023-02-25T18:20:31.372Z,14.06
2023-02-25T18:23:31.387Z,14.00
2023-02-25T18:26:15.362Z,13.98
2023-02-25T18:28:42.380Z,13.94
2023-02-25T18:31:11.049Z,13.94
2023-02-25T18:33:40.509Z,13.91
2023-02-25T18:36:18.297Z,13.88
2023-02-25T18:38:45.023Z,13.85
2023-02-25T18:41:12.126Z,13.80
2023-02-25T18:43:42.960Z,13.72
2023-02-25T18:46:10.204Z,13.68
2023-02-25T18:48:38.094Z,13.67
2023-02-25T18:51:11.530Z,13.68
2023-02-25T18:53:38.613Z,13.60
2023-02-25T18:56:06.028Z,13.57
2023-02-25T18:58:33.764Z,13.56
2023-02-25T19:01:01.104Z,13.50
2023-02-25T19:03:39.317Z,13.53
2023-02-25T19:06:07.055Z,13.50
2023-02-25T19:08:34.065Z,13.50
2023-02-25T19:11:01.272Z,13.47
2023-02-25T19:13:34.985Z,13.42
2023-02-25T19:16:02.698Z,13.38
2023-02-25T19:18:29.711Z,13.31
2023-02-25T19:20:57.044Z,13.23
2023-02-25T19:23:24.005Z,13.20
2023-02-25T19:26:00.747Z,13.23
2023-02-25T19:28:27.741Z,13.23
2023-02-25T19:30:54.944Z,13.19
2023-02-25T19:33:21.908Z,13.22
2023-02-25T19:35:48.846Z,13.19
2023-02-25T19:38:18.316Z,13.10
2023-02-25T19:40:46.644Z,13.08
2023-02-25T19:43:14.411Z,13.09
2023-02-25T19:45:42.051Z,13.10
2023-02-25T19:48:09.285Z,13.05
2023-02-25T19:50:37.152Z,13.02
2023-02-25T19:53:05.703Z,13.04
2023-02-25T19:55:33.644Z,13.05
2023-02-25T19:58:00.919Z,13.09
2023-02-25T20:00:28.165Z,13.08
2023-02-25T20:02:56.339Z,13.04
2023-02-25T20:05:24.176Z,13.00
2023-02-25T20:07:51.363Z,12.98
2023-02-25T20:10:19.934Z,13.00
2023-02-25T20:12:48.128Z,13.01
2023-02-25T20:15:16.455Z,13.00
2023-02-25T20:17:45.074Z,13.00
2023-02-25T20:20:14.323Z,12.99
2023-02-25T20:22:41.319Z,12.97
2023-02-25T20:25:10.013Z,12.97
2023-02-25T20:27:39.299Z,12.96
2023-02-25T20:30:07.076Z,12.97
2023-02-25T20:32:34.531Z,12.96
2023-02-25T20:35:02.042Z,12.96
2023-02-25T20:37:37.301Z,12.95
2023-02-25T20:40:08.257Z,12.92
2023-02-25T20:42:35.301Z,12.94
2023-02-25T20:45:02.671Z,12.94
2023-02-25T20:47:35.126Z,12.89
2023-02-25T20:50:04.560Z,12.87
2023-02-25T20:52:31.821Z,12.85
2023-02-25T20:54:58.874Z,12.83
2023-02-25T20:57:27.024Z,12.80
2023-02-25T20:59:54.480Z,12.70
2023-02-25T21:02:22.570Z,12.69
2023-02-25T21:04:50.463Z,12.67
2023-02-25T21:07:17.920Z,12.68
2023-02-25T21:09:44.859Z,12.67
2023-02-25T21:12:11.815Z,12.64
2023-02-25T21:14:38.668Z,12.61
2023-02-25T21:17:09.560Z,12.49
2023-02-25T21:19:38.828Z,12.45
2023-02-25T21:22:07.151Z,12.43
2023-02-25T21:24:34.748Z,12.41
2023-02-25T21:27:02.331Z,12.38
2023-02-25T21:29:29.466Z,12.32
2023-02-25T21:31:56.810Z,12.36
2023-02-25T21:34:23.735Z,12.34
2023-02-25T21:36:50.710Z,12.32
2023-02-25T21:39:18.173Z,12.38
2023-02-25T21:41:45.139Z,12.39
2023-02-25T21:44:12.860Z,12.40
2023-02-25T21:46:40.318Z,12.38
2023-02-25T21:49:07.311Z,12.34
2023-02-25T21:51:34.263Z,12.38
2023-02-25T21:54:02.017Z,12.38
2023-02-25T21:56:30.999Z,12.39
2023-02-25T21:59:00.618Z,12.39
2023-02-25T22:01:30.751Z,12.35
2023-02-25T22:03:58.503Z,12.36
2023-02-25T22:06:26.607Z,12.34
2023-02-25T22:08:55.205Z,12.34
2023-02-25T22:11:26.888Z,12.36
2023-02-25T22:13:54.225Z,12.23
2023-02-25T22:16:23.483Z,12.20
2023-02-25T22:18:51.910Z,12.23
2023-02-25T22:21:27.560Z,12.23
2023-02-25T22:23:57.579Z,12.26
2023-02-25T22:26:30.386Z,12.32
2023-02-25T22:28:59.553Z,12.32
2023-02-25T22:31:27.179Z,12.26
2023-02-25T22:33:56.053Z,12.30
2023-02-25T22:36:23.627Z,12.34
2023-02-25T22:38:50.887Z,12.38
2023-02-25T22:41:19.953Z,12.41
2023-02-25T22:43:47.881Z,12.37
2023-02-25T22:46:18.052Z,12.41
2023-02-25T22:48:47.134Z,12.41
2023-02-25T22:51:24.344Z,12.42
2023-02-25T22:53:52.197Z,12.41
2023-02-25T22:56:19.142Z,12.36
2023-02-25T22:58:46.374Z,12.38
2023-02-25T23:01:15.134Z,12.38
2023-02-25T23:03:45.484Z,12.40
2023-02-25T23:06:15.480Z,12.41
2023-02-25T23:08:43.293Z,12.40
2023-02-25T23:11:16.512Z,12.37
2023-02-25T23:13:47.534Z,12.36
2023-02-25T23:16:24.215Z,12.36
2023-02-25T23:18:52.065Z,12.32
2023-02-25T23:21:20.058Z,12.30
2023-02-25T23:23:51.107Z,12.29
2023-02-25T23:26:21.628Z,12.28
2023-02-25T23:28:49.365Z,12.28
2023-02-25T23:31:25.514Z,12.31
2023-02-25T23:33:57.561Z,12.24
2023-02-25T23:36:25.857Z,12.32
2023-02-25T23:38:58.497Z,12.37
2023-02-25T23:41:26.889Z,12.33
2023-02-25T23:43:55.586Z,12.35
2023-02-25T23:46:24.288Z,12.34
2023-02-25T23:48:55.923Z,12.35
2023-02-25T23:51:23.175Z,12.35
2023-02-25T23:54:01.335Z,12.32
2023-02-25T23:56:31.064Z,12.31
2023-02-25T23:58:58.879Z,12.27
